Time;durP1;ratioP1;P1;durP2;ratioP2;P2;SDS_P1;SDS_P2;PMS_P1;PMS_P2;Temp;Humidity;BMP_temperature;BMP_pressure;BME280_temperature;BME280_humidity;BME280_pressure;Samples;Min_cycle;Max_cycle;Signal;HPM_P1;HPM_P2
2023/10/07 00:00:47;;;;;;;0.50;0.40;;;10.10;99.90;;;;;;4998648;28;20206;-82
2023/10/07 00:03:23;;;;;;;0.57;0.57;;;10.10;99.90;;;;;;4971234;28;20765;-78
2023/10/07 00:05:50;;;;;;;1.40;1.33;;;10.10;99.90;;;;;;4981749;28;20205;-82
2023/10/07 00:08:19;;;;;;;1.30;0.60;;;10.00;99.90;;;;;;4997121;28;20197;-77
2023/10/07 00:10:46;;;;;;;2.15;0.80;;;9.90;99.90;;;;;;4996619;28;20301;-81
2023/10/07 00:13:13;;;;;;;0.80;0.75;;;9.90;99.90;;;;;;5002448;28;20191;-76
2023/10/07 00:15:43;;;;;;;3.25;2.05;;;9.70;99.90;;;;;;4992042;28;20274;-77
2023/10/07 00:18:12;;;;;;;0.40;0.20;;;9.50;99.90;;;;;;4989431;28;20288;-78
2023/10/07 00:20:47;;;;;;;0.70;0.68;;;9.30;99.90;;;;;;4985018;28;20194;-78
2023/10/07 00:23:18;;;;;;;0.40;0.30;;;9.30;99.90;;;;;;4988893;28;20182;-80
2023/10/07 00:25:49;;;;;;;0.40;0.40;;;9.20;99.90;;;;;;5002254;28;20212;-79
2023/10/07 00:28:18;;;;;;;0.45;0.43;;;9.10;99.90;;;;;;4999870;28;20187;-76
2023/10/07 00:30:49;;;;;;;0.43;0.32;;;9.10;99.90;;;;;;5000336;28;20221;-79
2023/10/07 00:33:19;;;;;;;1.30;1.20;;;9.10;99.90;;;;;;4998237;28;20508;-80
2023/10/07 00:35:49;;;;;;;0.40;0.20;;;9.10;99.90;;;;;;4970177;28;20210;-80
2023/10/07 00:38:15;;;;;;;0.40;0.22;;;9.10;99.90;;;;;;4982554;28;20179;-76
2023/10/07 00:40:52;;;;;;;4.00;3.50;;;9.00;99.90;;;;;;5007784;28;20225;-77
2023/10/07 00:43:26;;;;;;;1.60;1.15;;;9.00;99.90;;;;;;4979277;28;20187;-76
2023/10/07 00:45:59;;;;;;;3.45;1.92;;;9.10;99.90;;;;;;4982617;28;20206;-79
2023/10/07 00:48:38;;;;;;;3.03;2.15;;;9.20;99.90;;;;;;4985822;28;20194;-79
2023/10/07 00:51:04;;;;;;;0.40;0.30;;;;;;;;;;4984721;28;20218;-84
2023/10/07 00:53:35;;;;;;;0.52;0.52;;;9.20;99.90;;;;;;4997738;28;20187;-85
2023/10/07 00:56:11;;;;;;;0.40;0.30;;;9.20;99.90;;;;;;4979182;28;20221;-81
2023/10/07 00:58:41;;;;;;;0.40;0.30;;;9.20;99.90;;;;;;5002864;28;20191;-81
2023/10/07 01:01:10;;;;;;;0.43;0.35;;;9.30;99.90;;;;;;4999266;28;20201;-80
2023/10/07 01:03:48;;;;;;;0.55;0.55;;;9.30;99.90;;;;;;5001296;28;20194;-76
2023/10/07 01:06:25;;;;;;;0.50;0.43;;;9.20;99.90;;;;;;4985499;28;20194;-80
2023/10/07 01:08:58;;;;;;;0.40;0.30;;;9.10;99.90;;;;;;4994510;28;21162;-81
2023/10/07 01:11:26;;;;;;;0.40;0.30;;;9.10;99.90;;;;;;5002216;28;20246;-83
2023/10/07 01:13:56;;;;;;;0.55;0.55;;;;;;;;;;4981972;28;20602;-82
2023/10/07 01:16:33;;;;;;;0.70;0.70;;;9.00;99.90;;;;;;5001425;28;20911;-77
2023/10/07 01:19:06;;;;;;;0.50;0.50;;;9.10;99.90;;;;;;4997962;28;20651;-79
2023/10/07 01:21:32;;;;;;;0.40;0.30;;;9.20;99.90;;;;;;5000628;28;20213;-83
2023/10/07 01:23:59;;;;;;;0.40;0.40;;;;;;;;;;4990015;28;20182;-81
2023/10/07 01:26:29;;;;;;;0.40;0.20;;;8.90;99.90;;;;;;4994266;28;20198;-83
2023/10/07 01:29:12;;;;;;;0.40;0.30;;;8.70;99.90;;;;;;5001890;28;20183;-79
2023/10/07 01:31:42;;;;;;;1.90;1.20;;;8.60;99.90;;;;;;5001091;28;20585;-79
2023/10/07 01:34:13;;;;;;;0.40;0.30;;;8.40;99.90;;;;;;4993202;28;20186;-77
2023/10/07 01:36:41;;;;;;;0.50;0.50;;;8.40;99.90;;;;;;4996505;28;20216;-79
2023/10/07 01:39:07;;;;;;;0.40;0.30;;;8.50;99.90;;;;;;4995420;28;20174;-80
2023/10/07 01:41:38;;;;;;;0.68;0.57;;;8.50;99.90;;;;;;4989207;28;20242;-79
2023/10/07 01:44:06;;;;;;;0.40;0.30;;;8.60;99.90;;;;;;4995785;28;20197;-80
2023/10/07 01:46:34;;;;;;;0.57;0.40;;;8.70;99.90;;;;;;4994748;28;20207;-79
2023/10/07 01:49:04;;;;;;;0.90;0.90;;;8.70;99.90;;;;;;4983965;28;20660;-76
2023/10/07 01:51:30;;;;;;;5.70;2.55;;;8.70;99.90;;;;;;5005333;28;20213;-77
2023/10/07 01:53:58;;;;;;;0.50;0.37;;;8.70;99.90;;;;;;4979180;28;20327;-79
2023/10/07 01:56:26;;;;;;;0.40;0.30;;;8.70;99.90;;;;;;4999135;28;23126;-79
2023/10/07 01:59:03;;;;;;;0.73;0.63;;;8.60;99.90;;;;;;5000397;28;20273;-77
2023/10/07 02:01:29;;;;;;;0.40;0.25;;;8.50;99.90;;;;;;4981462;28;20757;-79
2023/10/07 02:03:58;;;;;;;0.40;0.30;;;8.50;99.90;;;;;;4982362;28;20187;-81
2023/10/07 02:06:24;;;;;;;1.10;0.88;;;8.40;99.90;;;;;;5003151;28;20183;-80
2023/10/07 02:08:50;;;;;;;0.40;0.20;;;;;;;;;;4984368;28;20190;-80
2023/10/07 02:11:25;;;;;;;0.40;0.40;;;;;;;;;;4982498;28;20210;-77
2023/10/07 02:13:52;;;;;;;0.40;0.20;;;8.40;99.90;;;;;;5002236;28;20448;-84
2023/10/07 02:16:19;;;;;;;0.60;0.60;;;8.40;99.90;;;;;;4984371;28;20234;-80
2023/10/07 02:18:44;;;;;;;1.45;1.00;;;8.30;99.90;;;;;;4978977;28;20229;-80
2023/10/07 02:21:10;;;;;;;0.40;0.20;;;8.20;99.90;;;;;;5009461;28;20217;-81
2023/10/07 02:23:45;;;;;;;0.57;0.57;;;8.20;99.90;;;;;;4983836;28;20194;-79
2023/10/07 02:26:20;;;;;;;0.40;0.30;;;8.10;99.90;;;;;;5001195;28;20201;-81
2023/10/07 02:29:06;;;;;;;0.40;0.30;;;8.20;99.90;;;;;;4999646;28;20197;-79
2023/10/07 02:31:42;;;;;;;0.40;0.20;;;;;;;;;;4985828;28;20209;-84
2023/10/07 02:34:08;;;;;;;0.40;0.30;;;8.30;99.90;;;;;;4973927;28;20186;-86
2023/10/07 02:36:36;;;;;;;2.72;1.80;;;8.10;99.90;;;;;;4996262;28;20210;-85
2023/10/07 02:39:18;;;;;;;0.50;0.50;;;8.10;99.90;;;;;;4973645;28;20195;-84
2023/10/07 02:41:47;;;;;;;0.77;0.77;;;8.30;99.90;;;;;;4977286;28;20225;-83
2023/10/07 02:44:17;;;;;;;0.55;0.45;;;8.10;99.90;;;;;;4977883;28;20195;-83
2023/10/07 02:46:42;;;;;;;0.55;0.55;;;8.10;99.90;;;;;;4991969;28;20182;-86
2023/10/07 02:49:13;;;;;;;2.43;2.33;;;8.20;99.90;;;;;;4977564;28;20204;-84
2023/10/07 02:51:55;;;;;;;0.40;0.20;;;8.10;99.90;;;;;;4995735;28;20456;-85
2023/10/07 02:54:22;;;;;;;1.45;1.35;;;8.10;99.90;;;;;;4976153;28;20201;-86
2023/10/07 02:56:55;;;;;;;0.93;0.93;;;8.10;99.90;;;;;;4995042;28;20218;-84
2023/10/07 02:59:27;;;;;;;0.55;0.55;;;8.20;99.90;;;;;;4994169;28;20183;-84
2023/10/07 03:04:41;;;;;;;1.20;1.10;;;8.20;99.90;;;;;;4992398;28;20237;-85
2023/10/07 03:07:15;;;;;;;0.40;0.20;;;8.20;99.90;;;;;;4978225;28;20186;-84
2023/10/07 03:09:43;;;;;;;0.70;0.50;;;8.20;99.90;;;;;;4992581;28;20202;-83
2023/10/07 03:12:16;;;;;;;0.70;0.50;;;8.20;99.90;;;;;;4974623;28;20218;-83
2023/10/07 03:14:43;;;;;;;0.95;0.88;;;8.30;99.90;;;;;;4993308;28;20213;-84
2023/10/07 03:17:17;;;;;;;1.90;0.65;;;8.20;99.90;;;;;;4974408;28;20190;-83
2023/10/07 03:19:48;;;;;;;0.40;0.30;;;8.20;99.90;;;;;;4975806;28;20293;-85
2023/10/07 03:22:15;;;;;;;0.40;0.30;;;7.90;99.90;;;;;;4999465;28;22030;-86
2023/10/07 03:24:41;;;;;;;0.40;0.20;;;7.80;99.90;;;;;;4999751;28;20197;-85
2023/10/07 03:27:11;;;;;;;0.40;0.30;;;7.70;99.90;;;;;;4981870;28;21568;-85
2023/10/07 03:29:39;;;;;;;0.68;0.68;;;7.60;99.90;;;;;;4967322;28;20442;-84
2023/10/07 03:32:12;;;;;;;0.40;0.30;;;7.50;99.90;;;;;;4978333;28;20582;-83
2023/10/07 03:34:40;;;;;;;0.30;0.20;;;7.50;99.90;;;;;;4975944;28;20187;-83
2023/10/07 03:42:25;;;;;;;0.40;0.30;;;7.40;99.90;;;;;;4979569;28;20321;-85
2023/10/07 03:44:51;;;;;;;0.83;0.50;;;7.50;99.90;;;;;;4993882;28;20313;-85
2023/10/07 03:47:17;;;;;;;0.40;0.20;;;7.60;99.90;;;;;;4995178;28;20608;-84
2023/10/07 03:49:52;;;;;;;0.30;0.20;;;7.50;99.90;;;;;;4980262;28;20225;-85
2023/10/07 03:52:20;;;;;;;0.30;0.20;;;7.50;99.90;;;;;;4980944;28;20225;-82
2023/10/07 03:54:47;;;;;;;0.32;0.22;;;7.60;99.90;;;;;;4994128;28;20226;-85
2023/10/07 03:57:15;;;;;;;0.40;0.20;;;7.80;99.90;;;;;;4978752;28;20188;-82
2023/10/07 03:59:41;;;;;;;2.70;1.02;;;8.10;99.90;;;;;;5003482;28;20234;-82
2023/10/07 04:05:09;;;;;;;0.40;0.32;;;7.70;99.90;;;;;;5000065;28;20201;-82
2023/10/07 04:07:34;;;;;;;0.40;0.40;;;7.70;99.90;;;;;;4980385;28;20736;-82
2023/10/07 04:10:20;;;;;;;0.30;0.20;;;7.40;99.90;;;;;;4993377;28;20205;-82
2023/10/07 04:12:47;;;;;;;0.40;0.30;;;7.30;99.90;;;;;;4997655;28;20218;-83
2023/10/07 04:15:16;;;;;;;3.75;0.50;;;7.30;99.90;;;;;;4993964;28;20208;-84
2023/10/07 04:17:43;;;;;;;0.85;0.85;;;7.30;99.90;;;;;;4995709;28;20178;-84
2023/10/07 04:20:50;;;;;;;0.40;0.20;;;7.30;99.90;;;;;;4969946;28;20716;-83
2023/10/07 04:23:12;;;;;;;0.60;0.60;;;7.40;99.90;;;;;;4994750;28;20209;-84
2023/10/07 04:25:44;;;;;;;1.23;0.57;;;7.50;99.90;;;;;;4993547;28;20198;-84
2023/10/07 04:28:13;;;;;;;0.40;0.30;;;7.60;99.90;;;;;;4975969;28;20190;-83
2023/10/07 04:30:39;;;;;;;0.45;0.43;;;8.30;99.90;;;;;;5000075;28;20191;-84
2023/10/07 04:33:10;;;;;;;1.00;0.97;;;8.30;99.90;;;;;;4996030;28;20197;-82
2023/10/07 04:35:37;;;;;;;0.40;0.28;;;8.30;99.90;;;;;;4996947;28;20468;-82
2023/10/07 04:38:38;;;;;;;4.20;1.52;;;8.30;99.90;;;;;;4985902;28;20879;-83
2023/10/07 04:46:23;;;;;;;2.58;1.23;;;;;;;;;;4994783;28;20234;-85
2023/10/07 04:48:56;;;;;;;0.40;0.25;;;9.40;99.90;;;;;;4996999;28;20186;-83
2023/10/07 04:53:58;;;;;;;0.82;0.82;;;9.90;99.90;;;;;;4994588;28;20723;-84
2023/10/07 04:56:25;;;;;;;1.40;1.30;;;9.90;99.90;;;;;;4978229;28;20320;-85
2023/10/07 04:58:54;;;;;;;0.65;0.65;;;9.80;99.90;;;;;;4998471;28;20183;-83
2023/10/07 05:01:33;;;;;;;0.40;0.30;;;9.30;99.90;;;;;;4997571;28;20206;-83
2023/10/07 05:04:09;;;;;;;0.40;0.30;;;9.20;99.90;;;;;;5003116;28;20178;-83
2023/10/07 05:06:36;;;;;;;1.80;1.13;;;9.20;99.90;;;;;;4976889;28;20225;-84
2023/10/07 05:09:09;;;;;;;0.40;0.22;;;9.20;99.90;;;;;;4985534;28;20186;-85
2023/10/07 05:11:45;;;;;;;0.40;0.30;;;9.20;99.90;;;;;;4985650;28;20214;-83
2023/10/07 05:14:11;;;;;;;2.05;0.77;;;9.20;99.90;;;;;;4994468;28;21148;-82
2023/10/07 05:16:37;;;;;;;0.40;0.20;;;9.40;99.90;;;;;;4992231;28;20341;-83
2023/10/07 05:19:08;;;;;;;1.50;0.77;;;9.70;99.90;;;;;;4998595;28;20503;-85
2023/10/07 05:21:37;;;;;;;0.40;0.28;;;10.00;99.90;;;;;;4979307;28;20214;-84
2023/10/07 05:24:04;;;;;;;0.52;0.52;;;10.00;99.90;;;;;;4978187;28;20194;-83
2023/10/07 05:26:31;;;;;;;0.75;0.75;;;9.80;99.90;;;;;;5016237;28;20201;-85
2023/10/07 05:29:02;;;;;;;0.40;0.30;;;9.70;99.90;;;;;;5004456;28;20202;-85
2023/10/07 05:31:30;;;;;;;0.40;0.30;;;9.70;99.90;;;;;;4977605;28;20206;-85
2023/10/07 05:33:59;;;;;;;0.40;0.20;;;9.60;99.90;;;;;;4976106;28;20672;-83
2023/10/07 05:36:30;;;;;;;1.15;0.50;;;9.80;99.90;;;;;;4995501;28;20206;-85
2023/10/07 05:38:56;;;;;;;0.50;0.50;;;9.80;99.90;;;;;;4998584;28;21162;-82
2023/10/07 05:41:25;;;;;;;0.40;0.30;;;9.80;99.90;;;;;;5009900;28;20226;-82
2023/10/07 05:43:51;;;;;;;0.40;0.30;;;10.00;99.90;;;;;;4999917;28;20193;-84
2023/10/07 05:46:20;;;;;;;0.70;0.70;;;9.90;99.90;;;;;;4994760;28;20208;-83
2023/10/07 05:48:47;;;;;;;0.70;0.70;;;9.90;99.90;;;;;;4979875;28;20193;-86
2023/10/07 05:51:13;;;;;;;0.52;0.52;;;10.00;99.90;;;;;;5010038;28;20240;-85
2023/10/07 05:53:42;;;;;;;0.40;0.30;;;9.80;99.90;;;;;;4996745;28;20675;-85
2023/10/07 05:56:08;;;;;;;0.65;0.60;;;9.70;99.90;;;;;;4975593;28;20224;-85
2023/10/07 05:58:37;;;;;;;0.40;0.35;;;9.70;99.90;;;;;;4996883;28;20324;-84
2023/10/07 06:01:04;;;;;;;0.40;0.20;;;9.90;99.90;;;;;;4974370;28;21090;-85
2023/10/07 06:03:30;;;;;;;0.43;0.40;;;10.20;99.90;;;;;;4992933;28;21176;-83
2023/10/07 06:05:59;;;;;;;0.47;0.37;;;11.50;99.90;;;;;;4971022;28;20198;-84
2023/10/07 06:08:28;;;;;;;0.40;0.30;;;12.40;99.90;;;;;;4978817;28;20464;-87
2023/10/07 06:10:56;;;;;;;0.40;0.30;;;13.40;99.90;;;;;;4973924;28;20709;-84
2023/10/07 06:13:29;;;;;;;1.08;0.93;;;13.80;99.90;;;;;;4974783;28;21306;-84
2023/10/07 06:15:59;;;;;;;0.52;0.52;;;13.20;99.90;;;;;;4993934;28;20268;-84
2023/10/07 06:18:25;;;;;;;0.75;0.65;;;12.70;99.90;;;;;;4975616;28;21197;-84
2023/10/07 06:20:52;;;;;;;1.58;0.82;;;12.70;99.90;;;;;;4998036;28;21857;-84
2023/10/07 06:23:19;;;;;;;0.40;0.20;;;13.00;99.90;;;;;;4982672;28;20736;-82
2023/10/07 06:25:48;;;;;;;0.40;0.20;;;13.30;99.90;;;;;;4992425;28;20437;-82
2023/10/07 06:31:17;;;;;;;0.40;0.30;;;15.00;99.90;;;;;;4998065;28;20206;-78
2023/10/07 06:33:59;;;;;;;0.60;0.40;;;15.20;99.90;;;;;;4998232;28;20448;-79
2023/10/07 06:36:24;;;;;;;0.40;0.20;;;15.40;99.90;;;;;;4997807;28;20570;-79
2023/10/07 06:38:54;;;;;;;2.73;0.60;;;16.00;99.90;;;;;;4995670;28;21158;-79
2023/10/07 06:41:20;;;;;;;0.40;0.20;;;16.70;99.90;;;;;;4975363;28;20444;-82
2023/10/07 06:43:59;;;;;;;1.73;0.70;;;18.60;99.90;;;;;;4998670;28;20473;-80
2023/10/07 06:46:29;;;;;;;1.10;1.07;;;18.80;99.90;;;;;;4981362;28;20459;-84
2023/10/07 06:48:55;;;;;;;1.37;0.87;;;18.60;99.90;;;;;;4998468;28;20444;-82
2023/10/07 06:51:20;;;;;;;0.50;0.40;;;19.40;99.90;;;;;;4982308;28;20579;-77
2023/10/07 06:53:46;;;;;;;1.80;1.17;;;18.60;99.90;;;;;;4996713;28;20933;-79
2023/10/07 06:56:20;;;;;;;0.40;0.20;;;17.50;99.90;;;;;;4999710;28;21272;-82
2023/10/07 06:58:59;;;;;;;0.50;0.40;;;16.30;99.90;;;;;;5011052;28;20269;-83
2023/10/07 07:01:36;;;;;;;0.40;0.20;;;15.90;99.90;;;;;;5002707;28;20516;-81
2023/10/07 07:04:09;;;;;;;1.30;1.20;;;15.30;99.90;;;;;;4983846;28;20509;-76
2023/10/07 07:06:42;;;;;;;0.40;0.20;;;15.20;99.90;;;;;;4995417;28;20467;-76
2023/10/07 07:09:41;;;;;;;1.80;1.70;;;;;;;;;;5000232;28;20465;-82
2023/10/07 07:11:57;;;;;;;3.37;2.10;;;15.00;99.90;;;;;;5001967;28;20471;-79
2023/10/07 07:14:28;;;;;;;0.60;0.50;;;15.00;99.90;;;;;;4991944;28;20549;-79
2023/10/07 07:16:57;;;;;;;3.07;0.63;;;14.80;99.90;;;;;;4983889;28;20465;-81
2023/10/07 07:19:25;;;;;;;0.60;0.60;;;14.70;99.90;;;;;;4983821;28;20530;-80
2023/10/07 07:21:51;;;;;;;2.43;2.23;;;14.80;99.90;;;;;;5019026;28;20556;-77
2023/10/07 07:24:23;;;;;;;0.40;0.20;;;14.80;99.90;;;;;;5014188;28;20469;-80
2023/10/07 07:26:52;;;;;;;1.20;0.70;;;15.40;99.90;;;;;;4987954;28;20194;-78
2023/10/07 07:29:25;;;;;;;0.60;0.40;;;14.70;99.90;;;;;;5009110;28;20450;-80
2023/10/07 07:31:51;;;;;;;0.60;0.60;;;;;;;;;;4987311;28;20461;-81
2023/10/07 07:34:26;;;;;;;2.77;2.57;;;15.20;99.90;;;;;;4982204;28;20442;-80
2023/10/07 07:37:04;;;;;;;0.90;0.90;;;15.60;99.90;;;;;;4994376;28;20552;-79
2023/10/07 07:39:31;;;;;;;0.70;0.70;;;;;;;;;;4980781;28;20560;-81
2023/10/07 07:42:00;;;;;;;0.70;0.70;;;17.00;99.90;;;;;;4984154;28;20469;-84
2023/10/07 07:44:32;;;;;;;1.77;1.03;;;18.40;99.90;;;;;;4983395;28;20460;-84
2023/10/07 07:47:02;;;;;;;4.00;0.87;;;20.40;99.90;;;;;;4998210;28;20452;-78
2023/10/07 07:49:36;;;;;;;0.50;0.40;;;20.30;99.90;;;;;;5001906;28;20564;-79
2023/10/07 07:52:02;;;;;;;0.40;0.20;;;19.80;99.90;;;;;;4982761;28;20469;-78
2023/10/07 07:54:29;;;;;;;0.60;0.60;;;18.20;99.90;;;;;;5006624;28;20456;-78
2023/10/07 07:56:55;;;;;;;0.70;0.50;;;17.10;99.90;;;;;;5007829;28;20497;-81
2023/10/07 07:59:21;;;;;;;0.40;0.30;;;17.00;99.90;;;;;;4987802;28;20457;-80
2023/10/07 08:01:59;;;;;;;0.40;0.40;;;16.70;99.90;;;;;;4997215;28;20835;-79
2023/10/07 08:04:37;;;;;;;0.40;0.30;;;16.50;99.90;;;;;;5014690;28;20444;-76
2023/10/07 08:07:11;;;;;;;0.93;0.93;;;16.50;99.90;;;;;;5007038;28;20445;-80
2023/10/07 08:09:37;;;;;;;0.50;0.47;;;;;;;;;;4998314;28;21508;-81
2023/10/07 08:12:05;;;;;;;0.40;0.20;;;16.20;99.90;;;;;;4997193;28;20453;-79
2023/10/07 08:14:33;;;;;;;0.40;0.30;;;16.00;99.90;;;;;;4995038;28;21448;-81
2023/10/07 08:17:00;;;;;;;0.50;0.40;;;16.00;99.90;;;;;;4993874;28;20818;-82
2023/10/07 08:19:26;;;;;;;5.30;1.30;;;15.90;99.90;;;;;;4978729;28;20460;-80
2023/10/07 08:21:52;;;;;;;0.53;0.53;;;15.90;99.90;;;;;;4980821;28;21068;-78
2023/10/07 08:24:21;;;;;;;1.20;0.50;;;15.80;99.90;;;;;;4996803;28;20207;-80
2023/10/07 08:26:48;;;;;;;1.27;1.17;;;15.90;99.90;;;;;;4979402;28;20910;-77
2023/10/07 08:29:32;;;;;;;1.23;0.87;;;16.00;99.90;;;;;;4983945;28;20563;-82
2023/10/07 08:31:59;;;;;;;0.40;0.30;;;15.90;99.90;;;;;;4978003;28;20480;-82
2023/10/07 08:34:32;;;;;;;0.40;0.30;;;15.90;99.90;;;;;;4987682;28;20441;-83
2023/10/07 08:37:01;;;;;;;0.50;0.40;;;15.90;99.90;;;;;;4987161;28;20575;-85
2023/10/07 08:39:28;;;;;;;0.40;0.30;;;15.90;99.90;;;;;;5001280;28;20488;-80
2023/10/07 08:41:58;;;;;;;0.40;0.30;;;15.90;99.90;;;;;;4999195;28;20473;-77
2023/10/07 08:44:31;;;;;;;0.50;0.50;;;15.80;99.90;;;;;;5002809;28;20441;-84
2023/10/07 08:47:04;;;;;;;0.50;0.50;;;15.90;99.90;;;;;;5003941;28;20581;-83
2023/10/07 08:49:33;;;;;;;2.93;1.47;;;15.60;99.90;;;;;;4994892;28;20452;-79
2023/10/07 08:51:59;;;;;;;0.50;0.47;;;15.70;99.90;;;;;;4991471;28;20461;-80
2023/10/07 08:54:31;;;;;;;2.30;0.93;;;15.50;99.90;;;;;;4997885;28;20445;-78
2023/10/07 08:57:08;;;;;;;0.40;0.40;;;15.70;99.90;;;;;;4999105;28;21002;-81
2023/10/07 08:59:34;;;;;;;0.93;0.93;;;15.60;99.90;;;;;;4996787;28;20447;-83
2023/10/07 09:02:03;;;;;;;0.70;0.60;;;15.40;99.90;;;;;;5001638;28;20540;-77
2023/10/07 09:04:33;;;;;;;0.70;0.63;;;15.40;99.90;;;;;;4993654;28;20293;-78
2023/10/07 09:07:08;;;;;;;2.40;1.47;;;15.40;99.90;;;;;;5001149;28;20445;-76
2023/10/07 09:09:38;;;;;;;0.40;0.33;;;15.40;99.90;;;;;;4998097;28;20443;-80
2023/10/07 09:12:28;;;;;;;1.13;1.03;;;15.50;99.90;;;;;;4983643;28;20477;-76
2023/10/07 09:15:07;;;;;;;0.60;0.40;;;15.60;99.90;;;;;;5001584;28;20463;-82
2023/10/07 09:17:35;;;;;;;0.60;0.60;;;15.60;99.90;;;;;;5002229;28;20510;-81
2023/10/07 09:20:01;;;;;;;1.90;0.73;;;16.20;99.90;;;;;;4983658;28;20452;-82
2023/10/07 09:22:35;;;;;;;0.40;0.30;;;15.80;99.90;;;;;;4988669;28;20481;-79
2023/10/07 09:25:16;;;;;;;0.87;0.53;;;15.90;99.90;;;;;;5004212;28;20190;-82
2023/10/07 09:27:56;;;;;;;0.40;0.20;;;16.10;99.90;;;;;;4985767;28;20451;-83
2023/10/07 09:30:45;;;;;;;1.27;0.60;;;16.10;99.90;;;;;;4982351;28;20449;-82
2023/10/07 09:33:13;;;;;;;0.40;0.30;;;16.20;99.90;;;;;;4997833;28;20457;-80
2023/10/07 09:38:44;;;;;;;0.50;0.50;;;16.10;99.90;;;;;;4998528;28;20453;-81
2023/10/07 09:41:32;;;;;;;1.03;0.93;;;16.10;99.90;;;;;;4979089;28;21071;-83
2023/10/07 09:44:00;;;;;;;0.60;0.60;;;16.20;99.90;;;;;;4993483;28;20816;-78
2023/10/07 09:46:27;;;;;;;1.03;0.57;;;16.40;99.90;;;;;;4977800;28;20449;-84
2023/10/07 09:49:00;;;;;;;1.00;1.00;;;16.70;99.90;;;;;;4998221;28;20470;-81
2023/10/07 09:51:34;;;;;;;0.40;0.30;;;17.10;99.90;;;;;;4985665;28;20490;-81
2023/10/07 09:54:07;;;;;;;0.40;0.30;;;17.70;99.90;;;;;;4974889;28;21629;-79
2023/10/07 09:56:59;;;;;;;0.40;0.30;;;18.00;99.90;;;;;;4980161;28;20490;-83
2023/10/07 09:59:51;;;;;;;0.40;0.30;;;18.10;99.90;;;;;;4996356;28;20514;-79
2023/10/07 10:02:43;;;;;;;0.40;0.27;;;18.10;99.90;;;;;;5000601;28;20456;-82
2023/10/07 10:05:35;;;;;;;0.50;0.30;;;18.30;99.90;;;;;;4999104;28;21711;-79
2023/10/07 10:08:55;;;;;;;1.37;0.50;;;18.00;99.90;;;;;;4980856;28;20506;-84
2023/10/07 10:11:43;;;;;;;0.50;0.33;;;18.40;99.90;;;;;;4960057;28;20643;-80
2023/10/07 10:16:44;;;;;;;0.40;0.27;;;18.20;99.90;;;;;;4995032;28;20473;-78
2023/10/07 10:19:26;;;;;;;5.50;0.97;;;18.30;99.90;;;;;;4984849;28;20451;-78
2023/10/07 10:21:53;;;;;;;0.50;0.50;;;18.70;99.90;;;;;;4996032;28;20492;-83
2023/10/07 10:24:30;;;;;;;0.40;0.30;;;18.90;99.90;;;;;;4980743;28;20473;-84
2023/10/07 10:27:07;;;;;;;0.90;0.70;;;19.50;99.90;;;;;;5001098;28;20494;-85
2023/10/07 10:29:41;;;;;;;0.73;0.70;;;20.00;99.90;;;;;;4981871;28;20440;-82
2023/10/07 10:32:16;;;;;;;0.57;0.57;;;19.60;99.90;;;;;;4989668;28;20457;-79
2023/10/07 10:34:42;;;;;;;0.83;0.60;;;19.20;99.90;;;;;;4977102;28;20479;-83
2023/10/07 10:37:10;;;;;;;1.67;0.80;;;19.40;99.90;;;;;;4997371;28;20467;-80
2023/10/07 10:39:39;;;;;;;1.23;0.57;;;19.20;99.90;;;;;;4990553;28;20510;-86
2023/10/07 10:42:09;;;;;;;0.40;0.20;;;19.60;99.90;;;;;;5011462;28;20210;-87
2023/10/07 10:44:39;;;;;;;0.77;0.57;;;19.00;99.90;;;;;;4990988;28;20580;-84
2023/10/07 10:47:06;;;;;;;0.40;0.30;;;19.00;99.90;;;;;;4999154;28;20440;-83
2023/10/07 10:49:32;;;;;;;0.60;0.60;;;18.50;99.90;;;;;;4995685;28;20545;-83
2023/10/07 10:52:00;;;;;;;0.80;0.77;;;18.70;99.90;;;;;;4998160;28;20554;-83
2023/10/07 10:54:25;;;;;;;0.40;0.30;;;18.40;99.90;;;;;;4979567;28;20436;-80
2023/10/07 10:56:57;;;;;;;0.70;0.53;;;18.50;99.90;;;;;;4981741;28;21098;-84
2023/10/07 10:59:43;;;;;;;0.40;0.33;;;18.70;99.90;;;;;;5013224;28;20852;-78
2023/10/07 11:02:22;;;;;;;1.73;0.73;;;18.40;99.90;;;;;;4998396;28;20462;-83
2023/10/07 11:04:54;;;;;;;0.80;0.80;;;18.20;99.90;;;;;;4989782;28;20440;-85
2023/10/07 11:07:20;;;;;;;0.40;0.30;;;;;;;;;;4979823;28;20477;-77
2023/10/07 11:09:48;;;;;;;3.13;0.60;;;18.00;99.90;;;;;;4991086;28;20540;-79
2023/10/07 11:12:16;;;;;;;0.40;0.20;;;18.10;99.90;;;;;;4996399;28;20556;-83
2023/10/07 11:14:43;;;;;;;2.10;1.40;;;18.20;99.90;;;;;;4983362;28;20837;-84
2023/10/07 11:17:10;;;;;;;0.50;0.40;;;18.10;99.90;;;;;;4984113;28;20464;-84
2023/10/07 11:19:44;;;;;;;1.37;1.27;;;18.30;99.90;;;;;;5000500;28;20433;-82
2023/10/07 11:22:19;;;;;;;0.40;0.30;;;18.30;99.90;;;;;;5002919;28;20503;-87
2023/10/07 11:24:50;;;;;;;0.40;0.30;;;18.50;99.90;;;;;;5002287;28;20436;-81
2023/10/07 11:27:16;;;;;;;1.63;0.30;;;18.60;99.90;;;;;;5013862;28;20434;-77
2023/10/07 11:29:42;;;;;;;3.43;1.33;;;18.70;99.90;;;;;;4995314;28;20551;-81
2023/10/07 11:32:08;;;;;;;0.50;0.40;;;18.60;99.90;;;;;;4984518;28;20662;-81
2023/10/07 11:34:38;;;;;;;0.90;0.40;;;19.90;99.90;;;;;;5006458;28;20464;-79
2023/10/07 11:37:19;;;;;;;0.60;0.43;;;19.10;99.90;;;;;;4995064;28;20221;-81
2023/10/07 11:39:45;;;;;;;2.43;0.90;;;19.20;99.90;;;;;;4979877;28;20513;-81
2023/10/07 11:42:16;;;;;;;0.50;0.50;;;19.00;99.90;;;;;;4999781;28;20544;-83
2023/10/07 11:44:46;;;;;;;0.40;0.30;;;18.90;99.90;;;;;;4980709;28;20186;-82
2023/10/07 11:47:15;;;;;;;0.40;0.30;;;19.00;99.90;;;;;;4973613;28;20519;-79
2023/10/07 11:49:41;;;;;;;0.40;0.30;;;19.30;99.90;;;;;;4958293;28;20449;-80
2023/10/07 11:52:06;;;;;;;0.50;0.50;;;19.30;99.90;;;;;;4993034;28;20535;-80
2023/10/07 11:54:37;;;;;;;0.63;0.63;;;18.70;99.90;;;;;;4994921;28;20930;-78
2023/10/07 11:57:06;;;;;;;0.40;0.20;;;18.80;99.90;;;;;;4994862;28;20233;-82
2023/10/07 11:59:36;;;;;;;1.07;0.73;;;18.90;99.90;;;;;;4999964;28;22381;-78
2023/10/07 12:02:09;;;;;;;0.60;0.50;;;19.10;99.90;;;;;;4997052;28;20552;-76
2023/10/07 12:04:48;;;;;;;0.40;0.20;;;20.20;99.90;;;;;;4990765;28;20584;-77
2023/10/07 12:07:14;;;;;;;1.90;0.60;;;19.50;99.90;;;;;;4997365;28;20441;-83
2023/10/07 12:09:41;;;;;;;0.50;0.40;;;19.60;99.90;;;;;;4994579;28;20430;-80
2023/10/07 12:12:10;;;;;;;0.80;0.67;;;19.60;99.90;;;;;;4976143;28;21232;-84
2023/10/07 12:14:36;;;;;;;0.40;0.30;;;19.90;99.90;;;;;;4996411;28;20449;-79
2023/10/07 12:17:03;;;;;;;0.40;0.30;;;20.20;99.90;;;;;;4992035;28;20465;-83
2023/10/07 12:19:30;;;;;;;0.63;0.40;;;20.20;99.90;;;;;;4973877;28;20599;-77
2023/10/07 12:21:57;;;;;;;0.50;0.40;;;;;;;;;;4994049;28;20548;-78
2023/10/07 12:24:22;;;;;;;0.90;0.90;;;20.30;99.90;;;;;;5001417;28;20578;-79
2023/10/07 12:26:51;;;;;;;0.70;0.70;;;20.40;99.90;;;;;;4983670;28;20700;-78
2023/10/07 12:29:19;;;;;;;0.40;0.20;;;20.70;99.90;;;;;;4980585;28;20209;-80
2023/10/07 12:31:45;;;;;;;1.43;0.70;;;20.70;99.90;;;;;;4973404;28;20469;-78
2023/10/07 12:34:13;;;;;;;0.60;0.60;;;20.00;99.90;;;;;;4998770;28;20445;-77
2023/10/07 12:36:39;;;;;;;0.40;0.30;;;19.90;99.90;;;;;;5002270;28;20226;-78
2023/10/07 12:39:13;;;;;;;0.83;0.83;;;20.30;99.90;;;;;;5000994;28;20446;-79
2023/10/07 12:41:39;;;;;;;0.40;0.30;;;20.30;99.90;;;;;;4991661;28;20229;-77
2023/10/07 12:44:08;;;;;;;0.90;0.50;;;20.60;99.90;;;;;;4988634;28;20518;-82
2023/10/07 12:46:41;;;;;;;0.40;0.20;;;20.60;99.90;;;;;;4973840;28;20221;-80
2023/10/07 12:49:13;;;;;;;0.40;0.20;;;20.10;99.90;;;;;;4997482;28;20481;-84
2023/10/07 12:51:42;;;;;;;1.17;1.07;;;20.00;99.90;;;;;;4975364;28;20469;-83
2023/10/07 12:54:10;;;;;;;1.60;1.17;;;20.00;99.90;;;;;;4996458;28;20643;-81
2023/10/07 12:56:42;;;;;;;0.40;0.27;;;20.30;99.90;;;;;;4997295;28;20469;-78
2023/10/07 12:59:18;;;;;;;0.97;0.80;;;20.40;99.90;;;;;;4997900;28;20456;-80
2023/10/07 13:01:51;;;;;;;1.03;0.80;;;20.60;99.90;;;;;;4975545;28;20475;-79
2023/10/07 13:04:25;;;;;;;0.50;0.40;;;20.80;99.90;;;;;;4979386;28;20459;-81
2023/10/07 13:07:00;;;;;;;0.50;0.50;;;20.80;99.90;;;;;;4981709;28;20507;-80
2023/10/07 13:09:32;;;;;;;0.50;0.40;;;20.70;99.90;;;;;;4979065;28;20496;-81
2023/10/07 13:11:58;;;;;;;0.70;0.47;;;20.70;99.90;;;;;;4979674;28;20476;-80
2023/10/07 13:14:27;;;;;;;0.40;0.37;;;20.30;99.90;;;;;;4991960;28;20472;-81
2023/10/07 13:16:56;;;;;;;1.47;1.37;;;20.30;99.90;;;;;;4976042;28;20462;-82
2023/10/07 13:19:35;;;;;;;0.50;0.40;;;20.30;99.90;;;;;;4978314;28;20453;-79
2023/10/07 13:22:05;;;;;;;0.40;0.30;;;20.30;99.90;;;;;;4989688;28;20464;-82
2023/10/07 13:24:34;;;;;;;0.40;0.30;;;20.50;99.90;;;;;;4998242;28;20453;-77
2023/10/07 13:27:02;;;;;;;1.53;1.43;;;20.40;99.90;;;;;;5000219;28;20441;-83
2023/10/07 13:29:27;;;;;;;0.50;0.40;;;20.60;99.90;;;;;;5002024;28;22379;-81
2023/10/07 13:31:53;;;;;;;1.00;0.60;;;21.00;99.90;;;;;;4995613;28;20540;-83
2023/10/07 13:34:20;;;;;;;0.97;0.60;;;20.90;99.90;;;;;;4989608;28;20262;-82
2023/10/07 13:36:46;;;;;;;0.60;0.60;;;20.50;99.90;;;;;;5000565;28;20209;-79
2023/10/07 13:39:18;;;;;;;0.50;0.40;;;20.60;99.90;;;;;;5009557;28;20441;-80
2023/10/07 13:41:47;;;;;;;1.00;0.67;;;20.80;99.90;;;;;;5008888;28;20288;-79